sensor_id;sensor_type;location;lat;lon;timestamp;P1;durP1;ratioP1;P2;durP2;ratioP2
16312;SDS011;8265;52.622;13.296;2022-08-19T00:03:58;19.40;;;17.10;;
16312;SDS011;8265;52.622;13.296;2022-08-19T00:09:19;12.80;;;11.50;;
16312;SDS011;8265;52.622;13.296;2022-08-19T00:14:39;17.00;;;15.20;;
16312;SDS011;8265;52.622;13.296;2022-08-19T00:20:00;15.80;;;12.30;;
16312;SDS011;8265;52.622;13.296;2022-08-19T00:25:21;12.30;;;10.10;;
16312;SDS011;8265;52.622;13.296;2022-08-19T00:30:42;12.70;;;11.30;;
16312;SDS011;8265;52.622;13.296;2022-08-19T00:36:05;15.90;;;14.30;;
16312;SDS011;8265;52.622;13.296;2022-08-19T00:41:24;12.00;;;10.80;;
16312;SDS011;8265;52.622;13.296;2022-08-19T00:46:46;11.10;;;10.00;;
16312;SDS011;8265;52.622;13.296;2022-08-19T00:52:07;11.10;;;10.00;;
16312;SDS011;8265;52.622;13.296;2022-08-19T00:57:28;11.90;;;10.20;;
16312;SDS011;8265;52.622;13.296;2022-08-19T01:02:48;15.40;;;14.00;;
16312;SDS011;8265;52.622;13.296;2022-08-19T01:08:09;12.80;;;11.00;;
16312;SDS011;8265;52.622;13.296;2022-08-19T01:13:31;9.90;;;8.90;;
16312;SDS011;8265;52.622;13.296;2022-08-19T01:18:51;12.70;;;10.20;;
16312;SDS011;8265;52.622;13.296;2022-08-19T01:24:12;15.60;;;14.10;;
16312;SDS011;8265;52.622;13.296;2022-08-19T01:29:33;15.50;;;13.90;;
16312;SDS011;8265;52.622;13.296;2022-08-19T01:34:54;17.10;;;10.50;;
16312;SDS011;8265;52.622;13.296;2022-08-19T01:40:15;12.10;;;10.60;;
16312;SDS011;8265;52.622;13.296;2022-08-19T01:45:36;19.80;;;11.80;;
16312;SDS011;8265;52.622;13.296;2022-08-19T01:50:57;20.40;;;18.30;;
16312;SDS011;8265;52.622;13.296;2022-08-19T01:56:18;18.30;;;16.50;;
16312;SDS011;8265;52.622;13.296;2022-08-19T02:01:39;12.10;;;10.90;;
16312;SDS011;8265;52.622;13.296;2022-08-19T02:07:00;16.20;;;12.50;;
16312;SDS011;8265;52.622;13.296;2022-08-19T02:12:21;14.30;;;11.70;;
16312;SDS011;8265;52.622;13.296;2022-08-19T02:17:42;14.90;;;11.50;;
16312;SDS011;8265;52.622;13.296;2022-08-19T02:23:03;13.40;;;11.40;;
16312;SDS011;8265;52.622;13.296;2022-08-19T02:28:24;14.50;;;11.50;;
16312;SDS011;8265;52.622;13.296;2022-08-19T02:33:45;18.10;;;13.10;;
16312;SDS011;8265;52.622;13.296;2022-08-19T02:39:06;15.00;;;13.50;;
16312;SDS011;8265;52.622;13.296;2022-08-19T02:44:26;14.80;;;13.00;;
16312;SDS011;8265;52.622;13.296;2022-08-19T02:49:47;17.30;;;13.20;;
16312;SDS011;8265;52.622;13.296;2022-08-19T02:55:09;22.70;;;20.20;;
16312;SDS011;8265;52.622;13.296;2022-08-19T03:00:29;18.20;;;16.20;;
16312;SDS011;8265;52.622;13.296;2022-08-19T03:05:50;23.40;;;14.00;;
16312;SDS011;8265;52.622;13.296;2022-08-19T03:11:15;18.60;;;13.70;;
16312;SDS011;8265;52.622;13.296;2022-08-19T03:16:33;20.50;;;14.20;;
16312;SDS011;8265;52.622;13.296;2022-08-19T03:21:53;24.30;;;20.80;;
16312;SDS011;8265;52.622;13.296;2022-08-19T03:27:14;17.80;;;13.20;;
16312;SDS011;8265;52.622;13.296;2022-08-19T03:32:35;29.20;;;24.90;;
16312;SDS011;8265;52.622;13.296;2022-08-19T03:37:56;29.00;;;25.20;;
16312;SDS011;8265;52.622;13.296;2022-08-19T03:43:17;17.50;;;13.80;;
16312;SDS011;8265;52.622;13.296;2022-08-19T03:48:38;16.40;;;13.60;;
16312;SDS011;8265;52.622;13.296;2022-08-19T03:54:00;20.80;;;13.90;;
16312;SDS011;8265;52.622;13.296;2022-08-19T03:59:21;24.80;;;22.10;;
16312;SDS011;8265;52.622;13.296;2022-08-19T04:04:42;24.30;;;21.00;;
16312;SDS011;8265;52.622;13.296;2022-08-19T04:10:02;19.40;;;15.50;;
16312;SDS011;8265;52.622;13.296;2022-08-19T04:15:23;20.60;;;18.50;;
16312;SDS011;8265;52.622;13.296;2022-08-19T04:20:45;18.90;;;17.00;;
16312;SDS011;8265;52.622;13.296;2022-08-19T04:26:05;15.10;;;12.50;;
16312;SDS011;8265;52.622;13.296;2022-08-19T04:31:27;16.80;;;13.60;;
16312;SDS011;8265;52.622;13.296;2022-08-19T04:36:47;19.80;;;17.70;;
16312;SDS011;8265;52.622;13.296;2022-08-19T04:42:08;14.60;;;11.70;;
16312;SDS011;8265;52.622;13.296;2022-08-19T04:47:29;13.90;;;12.30;;
16312;SDS011;8265;52.622;13.296;2022-08-19T04:52:50;14.50;;;13.10;;
16312;SDS011;8265;52.622;13.296;2022-08-19T04:58:11;18.60;;;14.20;;
16312;SDS011;8265;52.622;13.296;2022-08-19T05:03:32;17.00;;;14.40;;
16312;SDS011;8265;52.622;13.296;2022-08-19T05:08:53;18.30;;;13.10;;
16312;SDS011;8265;52.622;13.296;2022-08-19T05:14:14;30.90;;;20.30;;
16312;SDS011;8265;52.622;13.296;2022-08-19T05:19:35;20.80;;;15.90;;
16312;SDS011;8265;52.622;13.296;2022-08-19T05:24:56;18.60;;;14.80;;
16312;SDS011;8265;52.622;13.296;2022-08-19T05:30:17;23.70;;;19.60;;
16312;SDS011;8265;52.622;13.296;2022-08-19T05:35:38;50.70;;;37.80;;
16312;SDS011;8265;52.622;13.296;2022-08-19T05:40:59;25.10;;;22.50;;
16312;SDS011;8265;52.622;13.296;2022-08-19T05:46:20;18.80;;;14.10;;
16312;SDS011;8265;52.622;13.296;2022-08-19T05:51:41;16.50;;;14.80;;
16312;SDS011;8265;52.622;13.296;2022-08-19T05:57:02;17.00;;;15.30;;
16312;SDS011;8265;52.622;13.296;2022-08-19T06:02:22;15.20;;;13.70;;
16312;SDS011;8265;52.622;13.296;2022-08-19T06:07:43;14.30;;;11.20;;
16312;SDS011;8265;52.622;13.296;2022-08-19T06:13:04;16.00;;;14.50;;
16312;SDS011;8265;52.622;13.296;2022-08-19T06:18:25;14.60;;;10.80;;
16312;SDS011;8265;52.622;13.296;2022-08-19T06:23:47;16.20;;;14.50;;
16312;SDS011;8265;52.622;13.296;2022-08-19T06:29:09;17.40;;;13.60;;
16312;SDS011;8265;52.622;13.296;2022-08-19T06:34:29;18.90;;;10.60;;
16312;SDS011;8265;52.622;13.296;2022-08-19T06:39:49;13.60;;;12.00;;
16312;SDS011;8265;52.622;13.296;2022-08-19T06:45:10;14.90;;;13.40;;
16312;SDS011;8265;52.622;13.296;2022-08-19T06:50:31;13.90;;;12.50;;
16312;SDS011;8265;52.622;13.296;2022-08-19T06:55:52;13.60;;;12.20;;
16312;SDS011;8265;52.622;13.296;2022-08-19T07:01:13;12.00;;;10.70;;
16312;SDS011;8265;52.622;13.296;2022-08-19T07:06:34;16.60;;;12.50;;
16312;SDS011;8265;52.622;13.296;2022-08-19T07:11:55;12.60;;;11.30;;
16312;SDS011;8265;52.622;13.296;2022-08-19T07:17:16;17.00;;;12.10;;
16312;SDS011;8265;52.622;13.296;2022-08-19T07:22:37;17.30;;;15.50;;
16312;SDS011;8265;52.622;13.296;2022-08-19T07:27:58;12.80;;;11.10;;
16312;SDS011;8265;52.622;13.296;2022-08-19T07:33:19;24.40;;;15.60;;
16312;SDS011;8265;52.622;13.296;2022-08-19T07:38:46;12.10;;;10.90;;
16312;SDS011;8265;52.622;13.296;2022-08-19T07:44:01;18.10;;;14.00;;
16312;SDS011;8265;52.622;13.296;2022-08-19T07:49:22;21.40;;;19.40;;
16312;SDS011;8265;52.622;13.296;2022-08-19T07:54:43;15.90;;;12.40;;
16312;SDS011;8265;52.622;13.296;2022-08-19T08:00:05;15.40;;;14.00;;
16312;SDS011;8265;52.622;13.296;2022-08-19T08:05:25;16.90;;;15.20;;
16312;SDS011;8265;52.622;13.296;2022-08-19T08:10:46;21.50;;;19.30;;
16312;SDS011;8265;52.622;13.296;2022-08-19T08:16:07;12.40;;;11.20;;
16312;SDS011;8265;52.622;13.296;2022-08-19T08:21:28;16.90;;;15.20;;
16312;SDS011;8265;52.622;13.296;2022-08-19T08:26:49;11.90;;;10.80;;
16312;SDS011;8265;52.622;13.296;2022-08-19T08:32:09;14.50;;;12.80;;
16312;SDS011;8265;52.622;13.296;2022-08-19T08:37:30;16.70;;;14.90;;
16312;SDS011;8265;52.622;13.296;2022-08-19T08:42:54;16.90;;;15.20;;
16312;SDS011;8265;52.622;13.296;2022-08-19T08:48:15;14.60;;;13.10;;
16312;SDS011;8265;52.622;13.296;2022-08-19T08:53:33;17.40;;;11.30;;
16312;SDS011;8265;52.622;13.296;2022-08-19T08:58:56;13.10;;;11.50;;
16312;SDS011;8265;52.622;13.296;2022-08-19T09:04:16;17.20;;;15.40;;
16312;SDS011;8265;52.622;13.296;2022-08-19T09:09:38;14.40;;;13.00;;
16312;SDS011;8265;52.622;13.296;2022-08-19T09:14:58;13.50;;;12.00;;
16312;SDS011;8265;52.622;13.296;2022-08-19T09:20:19;14.20;;;10.80;;
16312;SDS011;8265;52.622;13.296;2022-08-19T09:25:39;16.70;;;14.30;;
16312;SDS011;8265;52.622;13.296;2022-08-19T09:31:00;17.00;;;15.30;;
16312;SDS011;8265;52.622;13.296;2022-08-19T09:36:21;16.90;;;11.90;;
16312;SDS011;8265;52.622;13.296;2022-08-19T09:41:42;13.80;;;12.30;;
16312;SDS011;8265;52.622;13.296;2022-08-19T09:47:04;13.10;;;11.80;;
16312;SDS011;8265;52.622;13.296;2022-08-19T09:52:24;14.20;;;11.10;;
16312;SDS011;8265;52.622;13.296;2022-08-19T09:57:45;14.50;;;13.00;;
16312;SDS011;8265;52.622;13.296;2022-08-19T10:03:06;10.60;;;9.50;;
16312;SDS011;8265;52.622;13.296;2022-08-19T10:08:28;12.90;;;10.10;;
16312;SDS011;8265;52.622;13.296;2022-08-19T10:13:48;14.80;;;9.40;;
16312;SDS011;8265;52.622;13.296;2022-08-19T10:19:09;15.10;;;10.40;;
16312;SDS011;8265;52.622;13.296;2022-08-19T10:24:30;10.60;;;9.50;;
16312;SDS011;8265;52.622;13.296;2022-08-19T10:29:51;13.40;;;11.30;;
16312;SDS011;8265;52.622;13.296;2022-08-19T10:35:12;13.40;;;12.00;;
16312;SDS011;8265;52.622;13.296;2022-08-19T10:40:33;11.10;;;10.10;;
16312;SDS011;8265;52.622;13.296;2022-08-19T10:45:54;14.10;;;12.40;;
16312;SDS011;8265;52.622;13.296;2022-08-19T10:51:15;11.60;;;9.50;;
16312;SDS011;8265;52.622;13.296;2022-08-19T10:56:36;12.90;;;11.50;;
16312;SDS011;8265;52.622;13.296;2022-08-19T11:01:59;11.80;;;8.90;;
16312;SDS011;8265;52.622;13.296;2022-08-19T11:07:18;9.80;;;8.80;;
16312;SDS011;8265;52.622;13.296;2022-08-19T11:12:39;26.40;;;9.70;;
16312;SDS011;8265;52.622;13.296;2022-08-19T11:18:00;11.60;;;9.00;;
16312;SDS011;8265;52.622;13.296;2022-08-19T11:23:21;11.70;;;9.90;;
16312;SDS011;8265;52.622;13.296;2022-08-19T11:28:42;12.10;;;10.10;;
16312;SDS011;8265;52.622;13.296;2022-08-19T11:34:04;8.60;;;7.80;;
16312;SDS011;8265;52.622;13.296;2022-08-19T11:39:24;9.60;;;8.70;;
16312;SDS011;8265;52.622;13.296;2022-08-19T11:44:45;8.90;;;8.00;;
16312;SDS011;8265;52.622;13.296;2022-08-19T11:50:06;10.60;;;9.30;;
16312;SDS011;8265;52.622;13.296;2022-08-19T11:55:27;7.90;;;6.80;;
16312;SDS011;8265;52.622;13.296;2022-08-19T12:00:48;6.50;;;5.90;;
16312;SDS011;8265;52.622;13.296;2022-08-19T12:06:11;9.40;;;7.00;;
16312;SDS011;8265;52.622;13.296;2022-08-19T12:11:30;9.10;;;8.20;;
16312;SDS011;8265;52.622;13.296;2022-08-19T12:16:50;9.20;;;8.30;;
16312;SDS011;8265;52.622;13.296;2022-08-19T12:22:11;9.70;;;8.50;;
16312;SDS011;8265;52.622;13.296;2022-08-19T12:27:32;8.70;;;7.80;;
16312;SDS011;8265;52.622;13.296;2022-08-19T12:32:54;13.50;;;8.10;;
16312;SDS011;8265;52.622;13.296;2022-08-19T12:38:14;9.90;;;8.90;;
16312;SDS011;8265;52.622;13.296;2022-08-19T12:43:35;10.00;;;9.00;;
16312;SDS011;8265;52.622;13.296;2022-08-19T12:48:57;12.00;;;8.50;;
16312;SDS011;8265;52.622;13.296;2022-08-19T12:54:17;9.40;;;8.50;;
16312;SDS011;8265;52.622;13.296;2022-08-19T12:59:38;10.80;;;7.50;;
16312;SDS011;8265;52.622;13.296;2022-08-19T13:04:59;15.20;;;8.30;;
16312;SDS011;8265;52.622;13.296;2022-08-19T13:10:20;10.70;;;8.80;;
16312;SDS011;8265;52.622;13.296;2022-08-19T13:15:42;7.70;;;6.90;;
16312;SDS011;8265;52.622;13.296;2022-08-19T13:21:03;11.00;;;8.70;;
16312;SDS011;8265;52.622;13.296;2022-08-19T13:26:23;17.20;;;12.70;;
16312;SDS011;8265;52.622;13.296;2022-08-19T13:31:44;13.70;;;8.70;;
16312;SDS011;8265;52.622;13.296;2022-08-19T13:37:05;10.40;;;7.60;;
16312;SDS011;8265;52.622;13.296;2022-08-19T13:42:26;10.10;;;7.20;;
16312;SDS011;8265;52.622;13.296;2022-08-19T13:47:48;13.40;;;9.20;;
16312;SDS011;8265;52.622;13.296;2022-08-19T13:53:09;8.10;;;7.30;;
16312;SDS011;8265;52.622;13.296;2022-08-19T13:58:29;9.40;;;8.40;;
16312;SDS011;8265;52.622;13.296;2022-08-19T14:03:50;8.60;;;7.40;;
16312;SDS011;8265;52.622;13.296;2022-08-19T14:09:11;10.50;;;9.50;;
16312;SDS011;8265;52.622;13.296;2022-08-19T14:14:32;10.90;;;8.90;;
16312;SDS011;8265;52.622;13.296;2022-08-19T14:19:56;7.30;;;6.30;;
16312;SDS011;8265;52.622;13.296;2022-08-19T14:25:15;8.80;;;7.40;;
16312;SDS011;8265;52.622;13.296;2022-08-19T14:30:35;12.30;;;8.50;;
16312;SDS011;8265;52.622;13.296;2022-08-19T14:35:56;8.10;;;7.40;;
16312;SDS011;8265;52.622;13.296;2022-08-19T15:05:31;8.60;;;7.70;;
16312;SDS011;8265;52.622;13.296;2022-08-19T15:16:13;6.60;;;6.00;;
16312;SDS011;8265;52.622;13.296;2022-08-19T15:21:35;8.30;;;7.50;;
16312;SDS011;8265;52.622;13.296;2022-08-19T15:26:57;7.70;;;6.90;;
16312;SDS011;8265;52.622;13.296;2022-08-19T15:32:16;10.00;;;7.00;;
16312;SDS011;8265;52.622;13.296;2022-08-19T15:37:37;12.70;;;7.90;;
16312;SDS011;8265;52.622;13.296;2022-08-19T15:42:58;8.10;;;7.40;;
16312;SDS011;8265;52.622;13.296;2022-08-19T15:54:11;8.00;;;7.20;;
16312;SDS011;8265;52.622;13.296;2022-08-19T15:59:31;7.30;;;6.60;;
16312;SDS011;8265;52.622;13.296;2022-08-19T16:04:52;11.80;;;10.70;;
16312;SDS011;8265;52.622;13.296;2022-08-19T16:10:21;13.10;;;11.00;;
16312;SDS011;8265;52.622;13.296;2022-08-19T16:15:35;11.40;;;8.80;;
16312;SDS011;8265;52.622;13.296;2022-08-19T16:20:54;11.50;;;8.30;;
16312;SDS011;8265;52.622;13.296;2022-08-19T16:26:15;10.10;;;8.70;;
16312;SDS011;8265;52.622;13.296;2022-08-19T16:31:36;9.60;;;8.70;;
16312;SDS011;8265;52.622;13.296;2022-08-19T16:36:57;9.10;;;8.30;;
16312;SDS011;8265;52.622;13.296;2022-08-19T16:42:17;10.90;;;9.90;;
16312;SDS011;8265;52.622;13.296;2022-08-19T16:47:38;9.70;;;8.70;;
16312;SDS011;8265;52.622;13.296;2022-08-19T16:52:59;9.50;;;8.40;;
16312;SDS011;8265;52.622;13.296;2022-08-19T16:58:21;9.00;;;8.10;;
16312;SDS011;8265;52.622;13.296;2022-08-19T17:03:41;8.60;;;7.80;;
16312;SDS011;8265;52.622;13.296;2022-08-19T17:09:03;10.00;;;9.00;;
16312;SDS011;8265;52.622;13.296;2022-08-19T17:14:23;8.50;;;7.60;;
16312;SDS011;8265;52.622;13.296;2022-08-19T17:19:44;9.00;;;6.50;;
16312;SDS011;8265;52.622;13.296;2022-08-19T17:25:06;8.90;;;6.30;;
16312;SDS011;8265;52.622;13.296;2022-08-19T17:30:26;8.30;;;5.80;;
16312;SDS011;8265;52.622;13.296;2022-08-19T17:35:47;5.60;;;5.00;;
16312;SDS011;8265;52.622;13.296;2022-08-19T17:41:08;7.10;;;6.40;;
16312;SDS011;8265;52.622;13.296;2022-08-19T17:46:29;6.90;;;6.20;;
16312;SDS011;8265;52.622;13.296;2022-08-19T17:51:50;5.80;;;5.30;;
16312;SDS011;8265;52.622;13.296;2022-08-19T17:57:11;4.80;;;4.40;;
16312;SDS011;8265;52.622;13.296;2022-08-19T18:02:32;7.00;;;5.90;;
16312;SDS011;8265;52.622;13.296;2022-08-19T18:07:53;6.00;;;5.20;;
16312;SDS011;8265;52.622;13.296;2022-08-19T18:13:14;6.60;;;5.90;;
16312;SDS011;8265;52.622;13.296;2022-08-19T18:18:35;6.00;;;5.30;;
16312;SDS011;8265;52.622;13.296;2022-08-19T18:23:56;7.70;;;6.40;;
16312;SDS011;8265;52.622;13.296;2022-08-19T18:29:17;11.10;;;6.70;;
16312;SDS011;8265;52.622;13.296;2022-08-19T18:34:38;9.50;;;6.20;;
16312;SDS011;8265;52.622;13.296;2022-08-19T18:39:59;10.80;;;7.70;;
16312;SDS011;8265;52.622;13.296;2022-08-19T18:45:20;6.80;;;6.10;;
16312;SDS011;8265;52.622;13.296;2022-08-19T18:50:41;9.60;;;8.60;;
16312;SDS011;8265;52.622;13.296;2022-08-19T18:56:02;11.90;;;7.70;;
16312;SDS011;8265;52.622;13.296;2022-08-19T19:01:24;6.90;;;6.20;;
16312;SDS011;8265;52.622;13.296;2022-08-19T19:06:44;10.60;;;7.20;;
16312;SDS011;8265;52.622;13.296;2022-08-19T19:12:06;7.10;;;6.10;;
16312;SDS011;8265;52.622;13.296;2022-08-19T19:17:26;14.70;;;9.80;;
16312;SDS011;8265;52.622;13.296;2022-08-19T19:22:47;8.60;;;7.70;;
16312;SDS011;8265;52.622;13.296;2022-08-19T19:28:08;10.10;;;8.90;;
16312;SDS011;8265;52.622;13.296;2022-08-19T19:33:29;11.50;;;9.40;;
16312;SDS011;8265;52.622;13.296;2022-08-19T19:38:50;11.50;;;7.80;;
16312;SDS011;8265;52.622;13.296;2022-08-19T19:44:11;11.80;;;10.40;;
16312;SDS011;8265;52.622;13.296;2022-08-19T19:49:32;12.80;;;9.70;;
16312;SDS011;8265;52.622;13.296;2022-08-19T19:54:53;14.50;;;11.10;;
16312;SDS011;8265;52.622;13.296;2022-08-19T20:00:15;17.80;;;12.60;;
16312;SDS011;8265;52.622;13.296;2022-08-19T20:05:35;19.20;;;13.00;;
16312;SDS011;8265;52.622;13.296;2022-08-19T20:10:59;17.40;;;12.10;;
16312;SDS011;8265;52.622;13.296;2022-08-19T20:16:16;22.90;;;17.60;;
16312;SDS011;8265;52.622;13.296;2022-08-19T20:21:38;21.10;;;14.10;;
16312;SDS011;8265;52.622;13.296;2022-08-19T20:26:59;18.50;;;14.30;;
16312;SDS011;8265;52.622;13.296;2022-08-19T20:32:19;23.40;;;20.90;;
16312;SDS011;8265;52.622;13.296;2022-08-19T20:37:40;22.70;;;20.30;;
16312;SDS011;8265;52.622;13.296;2022-08-19T20:43:05;18.80;;;15.10;;
16312;SDS011;8265;52.622;13.296;2022-08-19T20:48:22;26.50;;;16.10;;
16312;SDS011;8265;52.622;13.296;2022-08-19T20:53:43;25.60;;;19.30;;
16312;SDS011;8265;52.622;13.296;2022-08-19T20:59:04;20.10;;;16.30;;
16312;SDS011;8265;52.622;13.296;2022-08-19T21:04:25;25.00;;;19.30;;
16312;SDS011;8265;52.622;13.296;2022-08-19T21:09:46;24.20;;;18.80;;
16312;SDS011;8265;52.622;13.296;2022-08-19T21:15:08;21.70;;;17.60;;
16312;SDS011;8265;52.622;13.296;2022-08-19T21:20:28;26.70;;;19.00;;
16312;SDS011;8265;52.622;13.296;2022-08-19T21:25:51;33.80;;;30.10;;
16312;SDS011;8265;52.622;13.296;2022-08-19T21:31:10;23.00;;;18.50;;
16312;SDS011;8265;52.622;13.296;2022-08-19T21:36:31;27.80;;;24.80;;
16312;SDS011;8265;52.622;13.296;2022-08-19T21:41:52;22.00;;;17.70;;
16312;SDS011;8265;52.622;13.296;2022-08-19T21:47:13;22.80;;;16.40;;
16312;SDS011;8265;52.622;13.296;2022-08-19T21:52:34;24.70;;;22.10;;
16312;SDS011;8265;52.622;13.296;2022-08-19T21:57:55;23.60;;;20.90;;
16312;SDS011;8265;52.622;13.296;2022-08-19T22:03:16;20.10;;;16.10;;
16312;SDS011;8265;52.622;13.296;2022-08-19T22:08:37;18.20;;;14.80;;
16312;SDS011;8265;52.622;13.296;2022-08-19T22:13:58;18.90;;;14.60;;
16312;SDS011;8265;52.622;13.296;2022-08-19T22:19:19;19.90;;;13.90;;
16312;SDS011;8265;52.622;13.296;2022-08-19T22:24:40;22.30;;;20.00;;
16312;SDS011;8265;52.622;13.296;2022-08-19T22:30:01;21.10;;;16.30;;
16312;SDS011;8265;52.622;13.296;2022-08-19T22:35:23;24.30;;;16.10;;
16312;SDS011;8265;52.622;13.296;2022-08-19T22:40:44;18.50;;;16.50;;
16312;SDS011;8265;52.622;13.296;2022-08-19T22:46:04;18.30;;;14.20;;
16312;SDS011;8265;52.622;13.296;2022-08-19T22:51:25;15.40;;;13.80;;
16312;SDS011;8265;52.622;13.296;2022-08-19T22:56:45;19.30;;;14.90;;
16312;SDS011;8265;52.622;13.296;2022-08-19T23:02:07;22.80;;;15.50;;
16312;SDS011;8265;52.622;13.296;2022-08-19T23:07:28;23.90;;;21.30;;
16312;SDS011;8265;52.622;13.296;2022-08-19T23:12:48;19.20;;;14.60;;
16312;SDS011;8265;52.622;13.296;2022-08-19T23:18:09;25.20;;;15.10;;
16312;SDS011;8265;52.622;13.296;2022-08-19T23:23:30;18.80;;;15.20;;
16312;SDS011;8265;52.622;13.296;2022-08-19T23:28:51;15.30;;;12.10;;
16312;SDS011;8265;52.622;13.296;2022-08-19T23:34:14;20.10;;;13.80;;
16312;SDS011;8265;52.622;13.296;2022-08-19T23:39:33;45.20;;;34.30;;
16312;SDS011;8265;52.622;13.296;2022-08-19T23:44:59;20.30;;;18.10;;
16312;SDS011;8265;52.622;13.296;2022-08-19T23:50:15;17.70;;;13.90;;
16312;SDS011;8265;52.622;13.296;2022-08-19T23:55:37;17.60;;;13.10;;
